createdAt,value
2023-05-02T00:02:41.412Z,52.89
2023-05-02T00:06:06.122Z,52.95
2023-05-02T00:09:30.189Z,51.25
2023-05-02T00:12:55.131Z,50.16
2023-05-02T00:16:20.541Z,51.65
2023-05-02T00:19:45.241Z,50.21
2023-05-02T00:23:09.669Z,51.35
2023-05-02T00:26:33.910Z,52.13
2023-05-02T00:29:58.916Z,51.17
2023-05-02T00:33:25.016Z,51.80
2023-05-02T00:36:49.099Z,52.17
2023-05-02T00:40:14.537Z,51.80
2023-05-02T00:43:40.069Z,51.30
2023-05-02T00:47:04.775Z,52.41
2023-05-02T00:50:30.907Z,51.09
2023-05-02T00:53:55.793Z,51.36
2023-05-02T00:57:20.268Z,51.05
2023-05-02T01:00:51.426Z,49.84
2023-05-02T01:04:22.768Z,50.87
2023-05-02T01:08:12.847Z,50.84
2023-05-02T01:11:40.299Z,51.33
2023-05-02T01:15:06.465Z,50.93
2023-05-02T01:18:32.800Z,52.86
2023-05-02T01:21:59.917Z,53.05
2023-05-02T01:25:30.213Z,53.21
2023-05-02T01:29:02.701Z,54.46
2023-05-02T01:32:27.198Z,54.47
2023-05-02T01:35:52.500Z,55.56
2023-05-02T01:39:18.198Z,56.16
2023-05-02T01:42:43.022Z,56.06
2023-05-02T01:46:09.791Z,56.12
2023-05-02T01:49:35.768Z,56.01
2023-05-02T01:52:59.985Z,57.78
2023-05-02T01:56:26.182Z,57.22
2023-05-02T01:59:50.594Z,57.94
2023-05-02T02:03:17.816Z,58.41
2023-05-02T02:06:43.921Z,58.46
2023-05-02T02:10:09.406Z,58.95
2023-05-02T02:13:36.548Z,59.50
2023-05-02T02:17:01.197Z,60.08
2023-05-02T02:20:27.802Z,59.91
2023-05-02T02:23:51.996Z,60.28
2023-05-02T02:27:17.030Z,60.65
2023-05-02T02:30:41.492Z,62.07
2023-05-02T02:34:06.087Z,62.54
2023-05-02T02:37:32.995Z,62.89
2023-05-02T02:40:58.263Z,64.81
2023-05-02T02:44:38.922Z,63.73
2023-05-02T02:48:08.689Z,64.19
2023-05-02T02:51:35.544Z,64.40
2023-05-02T02:55:06.736Z,64.61
2023-05-02T02:58:34.495Z,64.53
2023-05-02T03:02:03.163Z,64.85
2023-05-02T03:05:27.505Z,64.56
2023-05-02T03:08:53.377Z,65.07
2023-05-02T03:12:21.599Z,65.44
2023-05-02T03:16:16.547Z,64.87
2023-05-02T03:19:40.804Z,65.10
2023-05-02T03:23:05.589Z,65.65
2023-05-02T03:26:30.003Z,66.58
2023-05-02T03:29:56.204Z,68.39
2023-05-02T03:33:20.931Z,67.95
2023-05-02T03:36:46.081Z,70.29
2023-05-02T03:40:11.490Z,69.84
2023-05-02T03:43:36.072Z,70.60
2023-05-02T03:47:01.688Z,72.08
2023-05-02T03:50:26.886Z,72.22
2023-05-02T03:53:51.549Z,71.47
2023-05-02T03:57:16.075Z,72.11
2023-05-02T04:00:40.390Z,71.26
2023-05-02T04:04:07.209Z,71.31
2023-05-02T04:07:32.253Z,70.87
2023-05-02T04:10:58.168Z,70.79
2023-05-02T04:14:23.062Z,71.04
2023-05-02T04:17:48.130Z,70.11
2023-05-02T04:21:14.191Z,69.09
2023-05-02T04:24:39.895Z,67.57
2023-05-02T04:28:05.731Z,67.57
2023-05-02T04:31:30.845Z,67.87
2023-05-02T04:34:55.343Z,66.60
2023-05-02T04:38:21.998Z,65.79
2023-05-02T04:41:46.839Z,65.86
2023-05-02T04:45:12.776Z,65.61
2023-05-02T04:48:42.409Z,64.49
2023-05-02T04:52:07.732Z,63.31
2023-05-02T04:55:33.166Z,63.40
2023-05-02T04:58:57.896Z,62.86
2023-05-02T05:02:22.456Z,62.83
2023-05-02T05:05:47.433Z,61.91
2023-05-02T05:09:11.689Z,62.27
2023-05-02T05:12:37.994Z,62.25
2023-05-02T05:16:02.421Z,62.29
2023-05-02T05:19:29.112Z,62.69
2023-05-02T05:22:54.033Z,60.95
2023-05-02T05:26:19.460Z,60.42
2023-05-02T05:29:45.378Z,60.25
2023-05-02T05:33:10.564Z,60.35
2023-05-02T05:36:35.503Z,60.14
2023-05-02T05:40:00.884Z,60.00
2023-05-02T05:43:25.219Z,60.06
2023-05-02T05:46:51.295Z,61.28
2023-05-02T05:50:16.963Z,61.26
2023-05-02T05:53:43.561Z,62.02
2023-05-02T05:57:09.122Z,62.59
2023-05-02T06:00:36.272Z,62.07
2023-05-02T06:04:03.427Z,62.17
2023-05-02T06:07:28.501Z,62.25
2023-05-02T06:10:53.134Z,62.59
2023-05-02T06:14:17.036Z,61.54
2023-05-02T06:17:42.841Z,61.04
2023-05-02T06:21:08.674Z,60.02
2023-05-02T06:24:33.487Z,59.94
2023-05-02T06:27:57.561Z,60.82
2023-05-02T06:31:21.864Z,58.90
2023-05-02T06:34:46.647Z,58.74
2023-05-02T06:38:13.001Z,58.37
2023-05-02T06:41:37.158Z,58.54
2023-05-02T06:45:02.215Z,57.71
2023-05-02T06:48:25.972Z,59.17
2023-05-02T06:51:50.447Z,59.14
2023-05-02T06:55:16.262Z,58.17
2023-05-02T06:58:40.966Z,58.59
2023-05-02T07:02:05.673Z,57.60
2023-05-02T07:05:31.604Z,56.95
2023-05-02T07:08:55.844Z,56.92
2023-05-02T07:12:22.851Z,56.49
2023-05-02T07:15:46.990Z,55.56
2023-05-02T07:19:12.569Z,55.24
2023-05-02T07:22:37.977Z,54.79
2023-05-02T07:26:06.214Z,55.42
2023-05-02T07:29:32.571Z,55.58
2023-05-02T07:33:00.284Z,54.30
2023-05-02T07:36:25.145Z,54.54
2023-05-02T07:39:51.415Z,53.77
2023-05-02T07:43:17.135Z,52.93
2023-05-02T07:46:44.007Z,51.47
2023-05-02T07:50:10.206Z,49.89
2023-05-02T07:53:36.071Z,49.78
2023-05-02T07:57:04.099Z,49.33
2023-05-02T08:00:31.103Z,48.48
2023-05-02T08:03:57.979Z,46.80
2023-05-02T08:07:23.327Z,46.61
2023-05-02T08:10:48.477Z,46.06
2023-05-02T08:14:13.556Z,44.99
2023-05-02T08:17:39.843Z,42.86
2023-05-02T08:21:07.801Z,43.31
2023-05-02T08:24:33.343Z,45.36
2023-05-02T08:27:57.819Z,46.82
2023-05-02T08:31:23.652Z,44.65
2023-05-02T08:34:49.316Z,42.47
2023-05-02T08:38:16.379Z,43.30
2023-05-02T08:41:41.410Z,41.42
2023-05-02T08:45:07.805Z,42.23
2023-05-02T08:48:32.162Z,42.37
2023-05-02T08:51:57.771Z,41.80
2023-05-02T08:55:28.294Z,41.45
2023-05-02T08:58:54.579Z,41.38
2023-05-02T09:02:23.036Z,41.56
2023-05-02T09:05:47.817Z,41.40
2023-05-02T09:09:13.411Z,41.32
2023-05-02T09:12:40.062Z,41.18
2023-05-02T09:16:05.803Z,41.73
2023-05-02T09:19:31.863Z,42.36
2023-05-02T09:22:57.167Z,42.10
2023-05-02T09:26:22.675Z,42.22
2023-05-02T09:29:49.380Z,43.04
2023-05-02T09:33:15.515Z,42.76
2023-05-02T09:36:43.262Z,42.03
2023-05-02T09:40:09.486Z,42.51
2023-05-02T09:43:32.952Z,42.30
2023-05-02T09:47:01.162Z,40.95
2023-05-02T09:50:35.727Z,41.45
2023-05-02T09:54:02.356Z,41.27
2023-05-02T09:57:42.113Z,40.62
2023-05-02T10:01:07.837Z,39.44
2023-05-02T10:04:37.133Z,38.96
2023-05-02T10:08:01.159Z,39.82
2023-05-02T10:11:33.950Z,38.99
2023-05-02T10:15:01.797Z,39.65
2023-05-02T10:18:30.240Z,38.42
2023-05-02T10:21:56.405Z,37.55
2023-05-02T10:25:21.289Z,37.50
2023-05-02T10:28:46.237Z,36.76
2023-05-02T10:32:15.961Z,35.44
2023-05-02T10:35:40.322Z,35.27
2023-05-02T10:39:06.552Z,37.15
2023-05-02T10:42:31.441Z,34.32
2023-05-02T10:45:56.345Z,32.47
2023-05-02T10:49:27.685Z,33.84
2023-05-02T10:52:52.464Z,33.09
2023-05-02T10:56:23.254Z,32.34
2023-05-02T10:59:47.595Z,32.46
2023-05-02T11:03:12.410Z,34.72
2023-05-02T11:06:37.998Z,34.71
2023-05-02T11:10:28.941Z,34.83
2023-05-02T11:13:54.150Z,31.26
2023-05-02T11:17:21.339Z,31.01
2023-05-02T11:20:45.084Z,31.52
2023-05-02T11:24:40.587Z,30.53
2023-05-02T11:28:07.026Z,30.27
2023-05-02T11:31:58.073Z,28.63
2023-05-02T11:35:23.323Z,29.48
2023-05-02T11:38:47.289Z,30.66
2023-05-02T11:42:11.855Z,30.12
2023-05-02T11:45:36.727Z,29.31
2023-05-02T11:49:03.403Z,30.65
2023-05-02T11:52:27.275Z,32.80
2023-05-02T11:55:52.386Z,33.26
2023-05-02T11:59:17.039Z,30.63
2023-05-02T12:02:41.952Z,31.15
2023-05-02T12:06:15.253Z,32.40
2023-05-02T12:09:40.660Z,33.21
2023-05-02T12:13:07.937Z,32.06
2023-05-02T12:16:33.037Z,30.35
2023-05-02T12:19:57.723Z,29.36
2023-05-02T12:23:26.712Z,30.26
2023-05-02T12:26:53.169Z,29.05
2023-05-02T12:30:28.232Z,30.16
2023-05-02T12:33:53.082Z,29.35
2023-05-02T12:37:24.516Z,28.56
2023-05-02T12:40:52.652Z,30.17
2023-05-02T12:44:19.563Z,31.35
2023-05-02T12:47:48.843Z,29.94
2023-05-02T12:51:24.876Z,28.81
2023-05-02T12:54:50.197Z,30.16
2023-05-02T12:58:14.928Z,31.02
2023-05-02T13:01:38.513Z,31.96
2023-05-02T13:05:02.129Z,31.71
2023-05-02T13:08:26.628Z,32.01
2023-05-02T13:11:52.346Z,32.07
2023-05-02T13:15:24.773Z,31.99
2023-05-02T13:18:50.440Z,33.81
2023-05-02T13:22:17.531Z,34.72
2023-05-02T13:25:41.542Z,34.30
2023-05-02T13:29:05.125Z,34.67
2023-05-02T13:32:30.166Z,34.42
2023-05-02T13:35:54.319Z,33.97
2023-05-02T13:39:17.474Z,33.42
2023-05-02T13:42:43.750Z,34.76
2023-05-02T13:46:08.468Z,33.12
2023-05-02T13:49:35.288Z,32.75
2023-05-02T13:53:01.369Z,32.73
2023-05-02T13:56:26.101Z,32.90
2023-05-02T13:59:50.248Z,32.97
2023-05-02T14:03:15.595Z,33.79
2023-05-02T14:06:41.804Z,34.24
2023-05-02T14:10:05.917Z,34.50
2023-05-02T14:13:29.404Z,33.84
2023-05-02T14:16:53.084Z,33.79
2023-05-02T14:20:17.595Z,33.79
2023-05-02T14:23:44.109Z,34.25
2023-05-02T14:27:13.418Z,34.09
2023-05-02T14:30:38.137Z,34.71
2023-05-02T14:34:03.383Z,34.81
2023-05-02T14:37:27.959Z,35.53
2023-05-02T14:40:54.528Z,36.10
2023-05-02T14:44:18.994Z,35.83
2023-05-02T14:47:43.840Z,37.01
2023-05-02T14:51:08.487Z,37.29
2023-05-02T14:54:33.038Z,36.71
2023-05-02T14:57:58.923Z,36.11
2023-05-02T15:01:25.840Z,36.03
2023-05-02T15:04:51.303Z,36.38
2023-05-02T15:08:17.103Z,36.13
2023-05-02T15:11:41.899Z,35.13
2023-05-02T15:15:09.513Z,34.93
2023-05-02T15:18:34.931Z,34.41
2023-05-02T15:22:00.703Z,35.53
2023-05-02T15:25:24.688Z,33.86
2023-05-02T15:28:50.289Z,33.92
2023-05-02T15:32:16.212Z,34.05
2023-05-02T15:35:41.029Z,33.94
2023-05-02T15:39:06.670Z,33.91
2023-05-02T15:42:33.862Z,34.04
2023-05-02T15:46:10.024Z,34.27
2023-05-02T15:49:37.055Z,34.81
2023-05-02T15:53:01.755Z,34.36
2023-05-02T15:56:26.049Z,34.65
2023-05-02T15:59:50.447Z,34.00
2023-05-02T16:03:14.796Z,34.42
2023-05-02T16:10:33.107Z,33.49
2023-05-02T16:13:57.769Z,33.42
2023-05-02T16:17:22.160Z,33.76
2023-05-02T16:20:48.326Z,34.00
2023-05-02T16:24:13.792Z,34.96
2023-05-02T16:27:38.403Z,35.08
2023-05-02T16:31:11.612Z,35.02
2023-05-02T16:34:36.128Z,35.27
2023-05-02T16:38:00.630Z,35.75
2023-05-02T16:41:27.241Z,36.14
2023-05-02T16:44:51.770Z,36.65
2023-05-02T16:48:17.076Z,36.65
2023-05-02T16:51:41.575Z,37.03
2023-05-02T16:55:06.829Z,37.18
2023-05-02T16:58:32.156Z,37.88
2023-05-02T17:01:57.362Z,38.91
2023-05-02T17:05:23.041Z,39.71
2023-05-02T17:08:47.526Z,39.52
2023-05-02T17:12:12.117Z,39.79
2023-05-02T17:15:40.390Z,39.48
2023-05-02T17:19:04.431Z,39.99
2023-05-02T17:22:28.765Z,40.35
2023-05-02T17:25:53.825Z,40.65
2023-05-02T17:29:18.075Z,41.15
2023-05-02T17:32:43.805Z,41.60
2023-05-02T17:36:08.676Z,42.14
2023-05-02T17:39:33.360Z,42.22
2023-05-02T17:42:59.623Z,42.36
2023-05-02T17:46:24.347Z,41.62
2023-05-02T17:49:51.830Z,44.98
2023-05-02T17:53:16.624Z,45.81
2023-05-02T17:56:41.193Z,47.05
2023-05-02T18:00:08.502Z,47.42
2023-05-02T18:03:34.418Z,48.18
2023-05-02T18:07:02.123Z,49.58
2023-05-02T18:10:29.820Z,49.84
2023-05-02T18:13:55.707Z,49.71
2023-05-02T18:17:21.371Z,50.06
2023-05-02T18:20:51.792Z,51.11
2023-05-02T18:24:17.950Z,50.94
2023-05-02T18:27:42.036Z,50.80
2023-05-02T18:31:06.957Z,51.04
2023-05-02T18:34:36.250Z,51.43
2023-05-02T18:38:03.894Z,51.94
2023-05-02T18:41:29.796Z,52.48
2023-05-02T18:44:54.504Z,51.22
2023-05-02T18:48:20.460Z,51.35
2023-05-02T18:51:46.217Z,52.25
2023-05-02T18:55:12.114Z,52.06
2023-05-02T18:58:44.309Z,52.46
2023-05-02T19:02:09.134Z,53.30
2023-05-02T19:05:35.205Z,53.48
2023-05-02T19:09:01.122Z,54.37
2023-05-02T19:12:27.576Z,54.41
2023-05-02T19:15:53.976Z,54.02
2023-05-02T19:19:19.733Z,54.32
2023-05-02T19:22:44.636Z,54.34
2023-05-02T19:26:13.728Z,54.92
2023-05-02T19:29:38.871Z,56.13
2023-05-02T19:33:07.669Z,57.70
2023-05-02T19:36:32.891Z,58.96
2023-05-02T19:39:59.144Z,60.39
2023-05-02T19:43:23.816Z,60.40
2023-05-02T19:46:50.125Z,60.13
2023-05-02T19:50:16.925Z,60.59
2023-05-02T19:53:41.666Z,61.06
2023-05-02T19:57:06.606Z,62.28
2023-05-02T20:00:31.755Z,62.85
2023-05-02T20:03:58.547Z,63.87
2023-05-02T20:07:25.108Z,65.46
2023-05-02T20:10:52.455Z,66.51
2023-05-02T20:14:18.838Z,66.96
2023-05-02T20:17:44.605Z,67.44
2023-05-02T20:21:13.012Z,67.57
2023-05-02T20:24:40.300Z,67.99
2023-05-02T20:28:04.997Z,67.98
2023-05-02T20:31:29.899Z,66.83
2023-05-02T20:34:53.857Z,67.44
2023-05-02T20:38:19.577Z,65.20
2023-05-02T20:41:45.816Z,65.07
2023-05-02T20:45:12.842Z,65.55
2023-05-02T20:48:36.855Z,63.43
2023-05-02T20:52:06.281Z,63.62
2023-05-02T20:55:31.017Z,63.23
2023-05-02T20:58:58.256Z,62.94
2023-05-02T21:02:22.218Z,62.28
2023-05-02T21:05:47.069Z,64.12
2023-05-02T21:09:11.295Z,64.79
2023-05-02T21:12:35.611Z,65.25
2023-05-02T21:16:01.267Z,65.95
2023-05-02T21:19:25.846Z,66.25
2023-05-02T21:22:49.750Z,65.46
2023-05-02T21:26:14.180Z,65.50
2023-05-02T21:29:38.451Z,65.85
2023-05-02T21:33:04.605Z,66.40
2023-05-02T21:36:28.828Z,66.17
2023-05-02T21:39:53.250Z,66.97
2023-05-02T21:43:17.954Z,66.98
2023-05-02T21:46:42.594Z,67.15
2023-05-02T21:50:12.198Z,66.99
2023-05-02T21:53:37.616Z,68.62
2023-05-02T21:57:03.389Z,69.36
2023-05-02T22:00:28.015Z,70.61
2023-05-02T22:03:52.624Z,68.82
2023-05-02T22:07:17.917Z,70.03
2023-05-02T22:10:43.545Z,70.93
2023-05-02T22:14:08.556Z,73.94
2023-05-02T22:17:34.202Z,74.47
2023-05-02T22:20:59.910Z,76.49
2023-05-02T22:24:27.069Z,75.35
2023-05-02T22:27:51.044Z,78.26
2023-05-02T22:31:15.852Z,77.48
2023-05-02T22:34:40.631Z,78.65
2023-05-02T22:38:05.358Z,81.94
2023-05-02T22:41:30.671Z,82.37
2023-05-02T22:44:56.559Z,83.69
2023-05-02T22:48:21.045Z,87.74
2023-05-02T22:51:47.256Z,85.10
2023-05-02T22:55:12.138Z,87.08
2023-05-02T22:58:37.860Z,87.08
2023-05-02T23:02:01.879Z,86.03
2023-05-02T23:05:26.448Z,87.14
2023-05-02T23:08:50.774Z,88.72
2023-05-02T23:12:15.276Z,85.71
2023-05-02T23:15:42.042Z,84.79
2023-05-02T23:19:07.052Z,86.64
2023-05-02T23:22:31.492Z,87.21
2023-05-02T23:25:55.617Z,88.53
2023-05-02T23:29:19.390Z,87.51
2023-05-02T23:32:45.603Z,88.29
2023-05-02T23:36:10.468Z,90.05
2023-05-02T23:39:34.925Z,90.39
2023-05-02T23:42:58.776Z,91.25
2023-05-02T23:46:22.865Z,89.59
2023-05-02T23:49:48.450Z,90.07
2023-05-02T23:53:12.890Z,91.06
2023-05-02T23:56:36.675Z,91.39
